Time;durP1;ratioP1;P1;durP2;ratioP2;P2;SDS_P1;SDS_P2;PMS_P1;PMS_P2;Temp;Humidity;BMP_temperature;BMP_pressure;BME280_temperature;BME280_humidity;BME280_pressure;Samples;Min_cycle;Max_cycle;Signal;HPM_P1;HPM_P2
2022/10/22 00:00:51;;;;;;;25.60;5.18;;;16.00;99.90;;;15.25;100.00;100493.63;4118820;28;20415;-77
2022/10/22 00:02:52;;;;;;;23.83;4.05;;;15.90;99.90;;;15.28;100.00;100502.03;4119807;28;20026;-77
2022/10/22 00:04:55;;;;;;;23.23;3.78;;;15.90;99.90;;;15.25;100.00;100501.59;4119814;28;20034;-77
2022/10/22 00:06:56;;;;;;;23.67;4.15;;;15.90;99.90;;;15.26;100.00;100498.72;4118981;28;20048;-77
2022/10/22 00:08:57;;;;;;;33.88;5.72;;;15.90;99.90;;;15.26;100.00;100495.28;4118587;28;20027;-77
2022/10/22 00:10:58;;;;;;;24.17;3.92;;;15.90;99.90;;;15.23;100.00;100503.63;4102524;29;20027;-77
2022/10/22 00:12:59;;;;;;;22.40;4.82;;;15.90;99.90;;;15.27;100.00;100508.34;4118938;28;20057;-77
2022/10/22 00:15:00;;;;;;;28.42;4.72;;;15.90;99.90;;;15.25;100.00;100509.56;4120097;28;20034;-77
2022/10/22 00:17:01;;;;;;;37.78;5.85;;;15.90;99.90;;;15.23;100.00;100511.59;4119834;28;20035;-77
2022/10/22 00:19:02;;;;;;;24.42;5.53;;;15.90;99.90;;;15.20;100.00;100512.78;4119733;28;20398;-77
2022/10/22 00:21:06;;;;;;;20.95;3.78;;;15.90;99.90;;;15.18;100.00;100506.03;4118528;28;20035;-77
2022/10/22 00:23:07;;;;;;;15.50;2.92;;;15.80;99.90;;;15.13;100.00;100511.94;4103088;28;20035;-77
2022/10/22 00:25:08;;;;;;;20.52;4.18;;;15.80;99.90;;;15.11;100.00;100513.97;4118620;28;20039;-77
2022/10/22 00:27:11;;;;;;;20.08;3.33;;;15.70;99.90;;;15.00;100.00;100505.66;4119581;28;20045;-77
2022/10/22 00:29:12;;;;;;;18.20;2.80;;;15.70;99.90;;;14.89;100.00;100512.31;4118620;28;20031;-77
2022/10/22 00:31:14;;;;;;;17.00;3.10;;;15.60;99.90;;;14.84;100.00;100522.69;4119484;28;20138;-77
2022/10/22 00:33:15;;;;;;;15.73;2.92;;;15.50;99.90;;;14.79;100.00;100519.75;4119864;28;20605;-77
2022/10/22 00:35:16;;;;;;;13.45;2.78;;;15.50;99.90;;;14.76;100.00;100528.09;4119396;28;20026;-78
2022/10/22 00:37:17;;;;;;;22.40;3.75;;;15.40;99.90;;;14.76;100.00;100530.75;4119486;28;20074;-77
2022/10/22 00:39:22;;;;;;;21.45;4.00;;;15.40;99.90;;;14.77;100.00;100535.06;4122884;28;20030;-77
2022/10/22 00:41:23;;;;;;;22.48;4.03;;;15.50;99.90;;;14.84;100.00;100549.25;4121654;28;20030;-77
2022/10/22 00:43:23;;;;;;;22.67;4.35;;;15.50;99.90;;;14.89;100.00;100552.97;4121316;28;20426;-77
2022/10/22 00:45:27;;;;;;;19.02;3.97;;;15.50;99.90;;;14.92;100.00;100549.13;4122461;28;20109;-77
2022/10/22 00:47:50;;;;;;;18.63;3.80;;;15.50;99.90;;;14.92;100.00;100557.06;4105362;29;20534;-77
2022/10/22 00:49:52;;;;;;;19.40;5.00;;;15.50;99.90;;;14.89;100.00;100560.13;4105044;29;20079;-77
2022/10/22 00:51:53;;;;;;;23.77;3.88;;;15.50;99.90;;;14.85;100.00;100558.84;4121488;28;20465;-77
2022/10/22 00:54:01;;;;;;;22.17;4.60;;;15.50;99.90;;;14.78;100.00;100566.72;4121407;28;20034;-77
2022/10/22 00:56:03;;;;;;;17.45;4.50;;;15.40;99.90;;;14.64;100.00;100559.63;4121417;28;20505;-77
2022/10/22 00:58:04;;;;;;;17.90;3.60;;;15.30;99.90;;;14.57;100.00;100561.41;4105073;29;20031;-77
2022/10/22 01:00:06;;;;;;;17.17;3.72;;;15.20;99.90;;;14.48;100.00;100567.00;4105324;29;20485;-77
2022/10/22 01:02:07;;;;;;;17.30;3.92;;;15.20;99.90;;;14.37;100.00;100562.97;4121152;28;20077;-77
2022/10/22 01:04:08;;;;;;;19.10;3.63;;;15.00;99.90;;;14.29;100.00;100566.50;4121241;28;20035;-77
2022/10/22 01:06:17;;;;;;;11.20;2.72;;;15.00;99.90;;;14.22;100.00;100570.91;4120899;28;20031;-78
2022/10/22 01:08:44;;;;;;;26.67;5.20;;;14.90;99.90;;;14.16;100.00;100574.28;4121152;28;20030;-77
2022/10/22 01:11:03;;;;;;;24.48;3.50;;;14.80;99.90;;;14.11;100.00;100584.63;4122257;28;20027;-77
2022/10/22 01:14:00;;;;;;;25.17;4.10;;;14.80;99.90;;;14.08;100.00;100592.13;4122271;28;20035;-77
2022/10/22 01:16:23;;;;;;;28.58;4.50;;;14.70;99.90;;;14.09;100.00;100597.25;4101677;28;20047;-77
2022/10/22 01:18:40;;;;;;;22.52;3.72;;;14.70;99.90;;;14.05;100.00;100597.78;4121203;28;20031;-77
2022/10/22 01:20:59;;;;;;;27.23;4.65;;;14.70;99.90;;;14.04;100.00;100604.91;4120656;28;20122;-77
2022/10/22 01:23:20;;;;;;;22.00;3.72;;;14.70;99.90;;;14.09;100.00;100618.47;4104821;29;20062;-77
2022/10/22 01:25:58;;;;;;;24.70;3.92;;;14.70;99.90;;;14.07;100.00;100609.88;4121917;28;20038;-77
2022/10/22 01:28:41;;;;;;;21.50;3.17;;;14.80;99.90;;;14.12;100.00;100622.59;4084616;29;20044;-77
2022/10/22 01:30:45;;;;;;;14.57;2.65;;;14.80;99.90;;;14.10;100.00;100613.97;4121073;28;20030;-77
2022/10/22 01:32:55;;;;;;;13.43;2.80;;;14.80;99.90;;;14.14;100.00;100626.72;4121027;28;20027;-77
2022/10/22 01:35:08;;;;;;;24.50;4.03;;;14.80;99.90;;;14.17;100.00;100621.03;4120573;28;20034;-77
2022/10/22 01:37:12;;;;;;;24.27;3.67;;;14.80;99.90;;;14.13;100.00;100627.72;4104643;29;20054;-77
2022/10/22 01:39:15;;;;;;;19.73;3.10;;;14.80;99.90;;;14.06;100.00;100618.00;4120776;28;20029;-77
2022/10/22 01:41:17;;;;;;;14.57;2.47;;;14.70;99.90;;;14.04;100.00;100620.84;4120903;28;20027;-77
2022/10/22 01:43:18;;;;;;;18.15;3.50;;;14.70;99.90;;;14.04;100.00;100626.13;4121932;28;20119;-77
2022/10/22 01:45:19;;;;;;;13.77;2.97;;;14.60;99.90;;;14.07;100.00;100628.44;4120493;28;20019;-77
2022/10/22 01:47:31;;;;;;;12.98;3.05;;;14.70;99.90;;;14.08;100.00;100629.25;4104536;29;20031;-77
2022/10/22 01:49:36;;;;;;;21.55;2.92;;;14.70;99.90;;;14.06;100.00;100636.59;4103800;28;20027;-77
2022/10/22 01:51:52;;;;;;;16.95;2.78;;;14.70;99.90;;;14.05;100.00;100635.75;4121715;28;20023;-77
2022/10/22 01:54:10;;;;;;;19.90;3.00;;;14.70;99.90;;;14.08;100.00;100638.03;4121785;28;20034;-77
2022/10/22 01:56:13;;;;;;;15.18;2.80;;;14.70;99.90;;;14.05;100.00;100632.28;4121779;28;20252;-77
2022/10/22 01:58:53;;;;;;;12.23;2.38;;;14.70;99.90;;;13.94;100.00;100636.19;4121485;28;20055;-77
2022/10/22 02:01:11;;;;;;;20.40;4.88;;;14.60;99.90;;;13.86;100.00;100630.94;4104456;29;20043;-77
2022/10/22 02:03:25;;;;;;;24.27;4.75;;;14.50;99.90;;;13.78;100.00;100620.44;4121588;28;20101;-77
2022/10/22 02:05:40;;;;;;;19.10;2.83;;;14.50;99.90;;;13.67;100.00;100627.00;4120344;28;20057;-77
2022/10/22 02:07:52;;;;;;;18.02;2.47;;;14.40;99.90;;;13.56;100.00;100626.59;4120169;28;20042;-77
2022/10/22 02:09:55;;;;;;;14.07;3.25;;;14.30;99.90;;;13.50;100.00;100622.81;4120381;28;20023;-77
2022/10/22 02:11:58;;;;;;;11.15;2.60;;;14.20;99.90;;;13.48;100.00;100638.06;4120402;28;20046;-77
2022/10/22 02:14:04;;;;;;;18.75;2.90;;;14.10;99.90;;;13.42;100.00;100632.66;4120195;28;20027;-77
2022/10/22 02:16:10;;;;;;;21.27;2.42;;;14.10;99.90;;;13.44;100.00;100630.66;4119965;28;20031;-77
2022/10/22 02:18:12;;;;;;;23.63;3.72;;;14.10;99.90;;;13.45;100.00;100634.94;4120388;28;20035;-77
2022/10/22 02:20:25;;;;;;;26.95;4.45;;;14.10;99.90;;;13.43;100.00;100631.66;4119852;28;20031;-77
2022/10/22 02:22:26;;;;;;;14.93;2.75;;;14.10;99.90;;;13.36;100.00;100641.31;4119986;28;20043;-77
2022/10/22 02:24:28;;;;;;;16.50;2.92;;;14.00;99.90;;;13.32;100.00;100645.31;4120104;28;20027;-77
2022/10/22 02:26:38;;;;;;;23.17;4.15;;;14.00;99.90;;;13.27;100.00;100638.72;4104270;29;20027;-77
2022/10/22 02:29:13;;;;;;;22.85;3.10;;;13.90;99.90;;;13.18;100.00;100623.88;4119752;28;20132;-77
2022/10/22 02:31:22;;;;;;;20.60;3.03;;;13.90;99.90;;;13.14;100.00;100629.72;4101205;28;20039;-77
2022/10/22 02:33:34;;;;;;;20.95;3.08;;;13.90;99.90;;;13.13;100.00;100628.88;4103743;28;20082;-77
2022/10/22 02:35:38;;;;;;;16.83;3.20;;;13.80;99.90;;;13.09;100.00;100640.81;4104112;28;20035;-78
2022/10/22 02:37:40;;;;;;;17.75;3.28;;;13.70;99.90;;;13.06;100.00;100646.44;4119938;28;20030;-78
2022/10/22 02:39:41;;;;;;;21.48;3.78;;;13.70;99.90;;;13.03;100.00;100643.31;4119953;28;20565;-78
2022/10/22 02:41:42;;;;;;;22.55;2.50;;;13.60;99.90;;;12.98;100.00;100648.31;4103667;29;20046;-77
2022/10/22 02:43:50;;;;;;;16.52;2.58;;;13.60;99.90;;;12.99;100.00;100656.06;4103725;29;20031;-77
2022/10/22 02:45:51;;;;;;;14.48;2.92;;;13.60;99.90;;;13.00;100.00;100649.78;4103388;29;20027;-78
2022/10/22 02:47:52;;;;;;;16.88;3.03;;;13.60;99.90;;;13.06;100.00;100646.44;4103444;29;20046;-77
2022/10/22 02:49:53;;;;;;;15.13;3.25;;;13.70;99.90;;;13.13;100.00;100652.72;4119372;28;20029;-77
2022/10/22 02:51:53;;;;;;;12.35;3.80;;;13.80;99.90;;;13.16;100.00;100647.06;4121002;28;20031;-77
2022/10/22 02:53:54;;;;;;;14.82;3.58;;;13.90;99.90;;;13.20;100.00;100651.00;4120765;28;20446;-77
2022/10/22 02:55:55;;;;;;;14.63;3.70;;;13.90;99.90;;;13.15;100.00;100650.72;4120839;28;20054;-77
2022/10/22 02:57:56;;;;;;;17.60;2.92;;;13.80;99.90;;;13.12;100.00;100659.00;4120599;28;20035;-77
2022/10/22 02:59:57;;;;;;;18.55;2.88;;;13.80;99.90;;;13.21;100.00;100665.06;4119754;28;20082;-77
2022/10/22 03:01:58;;;;;;;17.70;2.85;;;13.90;99.90;;;13.27;100.00;100659.91;4120172;28;20026;-77
2022/10/22 03:03:58;;;;;;;19.67;3.20;;;13.90;99.90;;;13.39;100.00;100667.44;4119634;28;20027;-77
2022/10/22 03:05:59;;;;;;;16.50;3.63;;;14.00;99.90;;;13.45;100.00;100661.44;4120343;28;20062;-77
2022/10/22 03:08:00;;;;;;;20.85;4.10;;;14.10;99.90;;;13.56;100.00;100671.66;4119172;28;20058;-77
2022/10/22 03:10:02;;;;;;;27.55;4.32;;;14.20;99.90;;;13.61;100.00;100667.47;4120543;28;20034;-77
2022/10/22 03:12:03;;;;;;;24.88;3.67;;;14.20;99.90;;;13.67;100.00;100668.59;4119156;28;20030;-77
2022/10/22 03:14:04;;;;;;;33.95;4.38;;;14.30;99.90;;;13.68;100.00;100667.56;4103073;29;20027;-77
2022/10/22 03:16:05;;;;;;;25.33;4.32;;;14.30;99.90;;;13.68;100.00;100665.75;4102616;29;20090;-77
2022/10/22 03:18:06;;;;;;;20.58;3.35;;;14.30;99.90;;;13.70;100.00;100670.88;4103610;29;20546;-77
2022/10/22 03:20:07;;;;;;;25.92;3.70;;;14.40;99.90;;;13.69;100.00;100664.75;4120302;28;20030;-77
2022/10/22 03:22:22;;;;;;;20.83;3.50;;;14.40;99.90;;;13.72;100.00;100668.88;4119500;28;20022;-77
2022/10/22 03:24:38;;;;;;;15.60;2.78;;;14.40;99.90;;;13.68;100.00;100660.44;4119253;28;20101;-77
2022/10/22 03:26:41;;;;;;;16.20;3.30;;;14.40;99.90;;;13.71;100.00;100661.91;4119254;28;20510;-77
2022/10/22 03:28:42;;;;;;;15.88;2.85;;;14.40;99.90;;;13.73;100.00;100662.56;4118765;28;20109;-77
2022/10/22 03:30:43;;;;;;;23.65;3.88;;;14.40;99.90;;;13.69;100.00;100661.25;4120443;28;20109;-77
2022/10/22 03:32:44;;;;;;;19.90;3.50;;;14.40;99.90;;;13.69;100.00;100653.31;4104512;28;20375;-77
2022/10/22 03:34:45;;;;;;;11.50;2.88;;;14.40;99.90;;;13.70;100.00;100661.09;4118946;28;20019;-77
2022/10/22 03:36:47;;;;;;;14.98;2.42;;;14.40;99.90;;;13.71;100.00;100667.19;4102870;29;20095;-77
2022/10/22 03:38:48;;;;;;;10.63;2.60;;;14.40;99.90;;;13.73;100.00;100665.22;4120022;28;20034;-77
2022/10/22 03:40:49;;;;;;;21.80;4.05;;;14.40;99.90;;;13.69;100.00;100666.56;4114190;28;20035;-77
2022/10/22 03:42:50;;;;;;;19.85;3.75;;;14.40;99.90;;;13.73;100.00;100666.06;4112635;28;20103;-77
2022/10/22 03:44:51;;;;;;;11.35;3.30;;;14.40;99.90;;;13.76;100.00;100667.53;4118621;28;20046;-77
2022/10/22 03:46:53;;;;;;;24.33;4.38;;;14.40;99.90;;;13.77;100.00;100667.31;4102953;29;20035;-77
2022/10/22 03:48:54;;;;;;;28.58;5.03;;;14.50;99.90;;;13.78;100.00;100665.50;4119019;28;20034;-77
2022/10/22 03:50:54;;;;;;;20.30;4.45;;;14.50;99.90;;;13.77;100.00;100661.19;4102731;29;20400;-77
2022/10/22 03:52:57;;;;;;;24.25;4.03;;;14.50;99.90;;;13.77;100.00;100663.84;4103002;29;20035;-77
2022/10/22 03:54:58;;;;;;;14.27;3.25;;;14.50;99.90;;;13.77;100.00;100666.50;4102767;29;20027;-77
2022/10/22 03:56:59;;;;;;;25.73;4.32;;;14.50;99.90;;;13.80;100.00;100668.78;4102914;29;20028;-77
2022/10/22 03:59:00;;;;;;;22.92;3.67;;;14.50;99.90;;;13.74;100.00;100666.84;4118872;28;20030;-77
2022/10/22 04:01:10;;;;;;;22.63;4.55;;;14.50;99.90;;;13.71;100.00;100653.94;4118575;28;20043;-77
2022/10/22 04:03:11;;;;;;;23.10;3.25;;;14.40;99.90;;;13.72;100.00;100671.50;4120019;28;20061;-77
2022/10/22 04:05:12;;;;;;;24.85;3.95;;;14.40;99.90;;;13.76;100.00;100678.13;4119807;28;20027;-77
2022/10/22 04:07:13;;;;;;;17.77;2.63;;;14.40;99.90;;;13.73;100.00;100681.97;4118658;28;20037;-77
2022/10/22 04:09:13;;;;;;;21.40;4.03;;;14.40;99.90;;;13.69;100.00;100679.81;4102772;29;20031;-77
2022/10/22 04:11:16;;;;;;;22.90;3.88;;;14.40;99.90;;;13.70;100.00;100682.31;4118797;28;20101;-77
2022/10/22 04:13:16;;;;;;;16.17;3.83;;;14.40;99.90;;;13.73;100.00;100687.25;4121608;28;20026;-77
2022/10/22 04:15:17;;;;;;;20.80;3.40;;;14.40;99.90;;;13.74;100.00;100690.72;4121826;28;20026;-77
2022/10/22 04:17:18;;;;;;;20.50;4.22;;;14.40;99.90;;;13.70;100.00;100689.44;4105928;29;20031;-77
2022/10/22 04:19:19;;;;;;;11.98;3.45;;;14.40;99.90;;;13.66;100.00;100688.13;4122004;28;20443;-77
2022/10/22 04:21:20;;;;;;;17.15;3.50;;;14.40;99.90;;;13.60;100.00;100694.13;4105750;29;20023;-77
2022/10/22 04:23:21;;;;;;;15.30;2.88;;;14.30;99.90;;;13.55;100.00;100694.69;4121879;28;20037;-77
2022/10/22 04:25:22;;;;;;;12.43;2.90;;;14.30;99.90;;;13.49;100.00;100695.38;4105780;29;20031;-77
2022/10/22 04:27:23;;;;;;;16.48;3.30;;;14.20;99.90;;;13.46;100.00;100701.03;4122840;28;20047;-77
2022/10/22 04:29:25;;;;;;;11.68;2.58;;;14.20;99.90;;;13.43;100.00;100697.91;4121871;28;20034;-77
2022/10/22 04:31:26;;;;;;;9.48;2.50;;;14.10;99.90;;;13.44;100.00;100707.50;4121903;28;20498;-77
2022/10/22 04:33:27;;;;;;;12.57;3.58;;;14.10;99.90;;;13.42;100.00;100712.16;4122828;28;20041;-77
2022/10/22 04:35:28;;;;;;;23.42;4.03;;;14.10;99.90;;;13.44;100.00;100707.50;4105390;28;20032;-77
2022/10/22 04:37:31;;;;;;;16.42;3.15;;;14.10;99.90;;;13.42;100.00;100710.31;4122736;28;20043;-77
2022/10/22 04:39:32;;;;;;;17.48;3.53;;;14.10;99.90;;;13.43;100.00;100709.34;4122771;28;20027;-77
2022/10/22 04:41:37;;;;;;;11.68;2.38;;;14.10;99.90;;;13.46;100.00;100708.16;4122725;28;20042;-77
2022/10/22 04:43:39;;;;;;;17.48;4.00;;;14.10;99.90;;;13.49;100.00;100703.34;4121461;28;20581;-77
2022/10/22 04:45:40;;;;;;;13.65;2.92;;;14.20;99.90;;;13.42;100.00;100701.53;4121506;28;20102;-77
2022/10/22 04:47:41;;;;;;;18.67;3.78;;;14.10;99.90;;;13.37;100.00;100701.25;4122592;28;20038;-77
2022/10/22 04:49:42;;;;;;;17.55;3.20;;;14.10;99.90;;;13.35;100.00;100708.56;4105149;29;20091;-77
2022/10/22 04:51:42;;;;;;;20.40;3.65;;;14.00;99.90;;;13.31;100.00;100708.06;4122621;28;20390;-77
2022/10/22 04:53:44;;;;;;;22.70;3.70;;;14.00;99.90;;;13.27;100.00;100702.28;4122620;28;20027;-77
2022/10/22 04:55:45;;;;;;;12.40;2.85;;;14.00;99.90;;;13.24;100.00;100713.25;4120413;28;20073;-77
2022/10/22 04:57:46;;;;;;;20.60;3.47;;;14.00;99.90;;;13.25;100.00;100716.72;4104930;29;20495;-77
2022/10/22 04:59:47;;;;;;;23.38;3.60;;;13.90;99.90;;;13.22;100.00;100723.19;4117422;28;20105;-77
2022/10/22 05:01:48;;;;;;;15.65;2.80;;;13.90;99.90;;;13.19;100.00;100731.50;4122064;28;20019;-77
2022/10/22 05:03:52;;;;;;;18.45;4.03;;;13.90;99.90;;;13.21;100.00;100729.47;4114172;28;20039;-77
2022/10/22 05:05:53;;;;;;;;;;;13.90;99.90;;;13.22;100.00;100740.91;4116272;28;20054;-77
2022/10/22 05:07:53;;;;;;;18.75;4.00;;;13.90;99.90;;;13.32;100.00;100746.78;4120700;28;19914;-77
2022/10/22 05:09:54;;;;;;;16.13;3.10;;;14.00;99.90;;;13.38;100.00;100747.97;4115133;28;20071;-77
2022/10/22 05:11:55;;;;;;;13.13;3.03;;;14.00;99.90;;;13.41;100.00;100750.25;4113572;28;20514;-77
2022/10/22 05:13:58;;;;;;;17.05;3.53;;;14.10;99.90;;;13.39;100.00;100753.06;4105129;29;20023;-77
2022/10/22 05:16:01;;;;;;;18.17;2.97;;;14.10;99.90;;;13.41;100.00;100756.34;4120941;28;20588;-77
2022/10/22 05:18:02;;;;;;;9.80;2.85;;;14.10;99.90;;;13.43;100.00;100754.38;4121176;28;20039;-77
2022/10/22 05:20:06;;;;;;;20.00;3.88;;;14.10;99.90;;;13.49;100.00;100761.63;4116506;28;20556;-77
2022/10/22 05:22:07;;;;;;;13.55;2.85;;;14.20;99.90;;;13.54;100.00;100767.22;4120929;28;20085;-77
2022/10/22 05:24:08;;;;;;;7.18;1.92;;;14.20;99.90;;;13.58;100.00;100773.00;4116207;28;20450;-77
2022/10/22 05:26:13;;;;;;;17.42;2.95;;;14.20;99.90;;;13.58;100.00;100781.78;4122336;28;20062;-77
2022/10/22 05:28:14;;;;;;;22.58;5.38;;;14.30;99.90;;;13.62;100.00;100775.13;4120733;28;20054;-77
2022/10/22 05:30:15;;;;;;;18.55;2.60;;;14.30;99.90;;;13.63;100.00;100779.44;4105054;29;20486;-77
2022/10/22 05:32:16;;;;;;;22.05;3.05;;;14.30;99.90;;;13.65;100.00;100769.47;4131600;28;20054;-77
2022/10/22 05:34:17;;;;;;;9.00;2.30;;;14.30;99.90;;;13.66;100.00;100772.94;4122155;28;20031;-78
2022/10/22 05:36:21;;;;;;;12.25;2.65;;;14.40;99.90;;;13.70;100.00;100772.44;4121747;28;20106;-79
2022/10/22 05:38:22;;;;;;;;;;;14.40;99.90;;;13.66;100.00;100778.25;4122336;28;20038;-77
2022/10/22 05:40:23;;;;;;;10.43;2.38;;;14.40;99.90;;;13.69;100.00;100772.59;4121867;28;20001;-78
2022/10/22 05:42:24;;;;;;;7.85;2.10;;;14.40;99.90;;;13.68;100.00;100766.47;4120724;28;20538;-78
2022/10/22 05:44:24;;;;;;;10.70;2.78;;;14.40;99.90;;;13.68;100.00;100766.47;4104497;28;20054;-78
2022/10/22 05:46:29;;;;;;;9.10;2.60;;;14.40;99.90;;;13.68;100.00;100763.81;4120575;28;20027;-78
2022/10/22 05:48:30;;;;;;;11.30;2.65;;;14.40;99.90;;;13.68;100.00;100761.16;4121494;28;20564;-77
2022/10/22 05:50:31;;;;;;;13.63;3.40;;;14.40;99.90;;;13.67;100.00;100764.00;4121642;28;20066;-78
2022/10/22 05:52:32;;;;;;;21.10;5.00;;;14.40;99.90;;;13.68;100.00;100768.28;4121934;28;20027;-78
2022/10/22 05:54:32;;;;;;;21.48;4.05;;;14.40;99.90;;;13.70;100.00;100769.78;4120438;28;20053;-78
2022/10/22 05:56:34;;;;;;;29.58;5.60;;;14.40;99.90;;;13.76;100.00;100776.22;4104323;29;20062;-77
2022/10/22 05:58:37;;;;;;;16.98;4.40;;;14.40;99.90;;;13.79;100.00;100781.16;4120435;28;20102;-77
2022/10/22 06:00:38;;;;;;;44.50;6.35;;;14.50;99.90;;;13.81;100.00;100787.09;4104289;29;20074;-78
2022/10/22 06:02:39;;;;;;;51.33;7.90;;;14.50;99.90;;;13.81;100.00;100779.97;4121515;28;20023;-78
2022/10/22 06:04:39;;;;;;;14.77;5.50;;;14.50;99.90;;;13.86;100.00;100790.03;4121204;28;21393;-77
2022/10/22 06:06:49;;;;;;;22.38;5.40;;;14.60;99.90;;;13.85;100.00;100793.72;4103990;29;20031;-77
2022/10/22 06:08:52;;;;;;;45.05;8.18;;;14.60;99.90;;;13.89;100.00;100783.59;4120373;28;20035;-77
2022/10/22 06:10:53;;;;;;;20.08;6.32;;;14.60;99.90;;;13.92;100.00;100796.50;4121342;28;20051;-77
2022/10/22 06:12:54;;;;;;;17.95;6.18;;;14.60;99.90;;;13.90;100.00;100786.06;4120257;28;20031;-78
2022/10/22 06:14:55;;;;;;;18.55;5.57;;;14.60;99.90;;;13.92;100.00;100792.00;4121504;28;20486;-77
2022/10/22 06:16:59;;;;;;;13.57;6.50;;;14.60;99.90;;;13.95;100.00;100796.16;4120140;28;20027;-77
2022/10/22 06:19:03;;;;;;;;;;;14.60;99.90;;;13.93;100.00;100798.97;4120434;28;20078;-77
2022/10/22 06:21:07;;;;;;;23.02;8.25;;;14.70;99.90;;;13.95;100.00;100802.25;4121151;28;19968;-77
2022/10/22 06:23:08;;;;;;;31.55;9.63;;;14.70;99.90;;;13.98;100.00;100801.09;4121413;28;20030;-77
2022/10/22 06:25:09;;;;;;;31.02;8.98;;;14.70;99.90;;;13.98;100.00;100790.50;4120061;28;20046;-77
2022/10/22 06:27:10;;;;;;;34.47;9.43;;;14.70;99.90;;;14.00;100.00;100791.97;4119556;28;20526;-77
2022/10/22 06:29:10;;;;;;;32.05;8.57;;;14.70;99.90;;;14.02;100.00;100802.38;4120903;28;20093;-77
2022/10/22 06:31:11;;;;;;;30.23;9.13;;;14.70;99.90;;;14.00;100.00;100801.75;4121280;28;20085;-77
2022/10/22 06:33:12;;;;;;;32.75;9.52;;;14.70;99.90;;;14.05;100.00;100797.56;4121176;28;20054;-77
2022/10/22 06:35:13;;;;;;;24.05;8.25;;;14.80;99.90;;;14.06;100.00;100799.22;4107966;28;20391;-77
2022/10/22 06:37:14;;;;;;;37.13;9.20;;;14.70;99.90;;;14.10;100.00;100816.41;4119815;28;20053;-78
2022/10/22 06:39:17;;;;;;;34.20;10.48;;;14.80;99.90;;;14.10;100.00;100820.88;4121078;28;20022;-78
2022/10/22 06:41:18;;;;;;;36.72;9.70;;;14.80;99.90;;;14.11;100.00;100826.03;4119838;28;20089;-77
2022/10/22 06:43:19;;;;;;;37.88;8.00;;;14.80;99.90;;;14.13;100.00;100826.66;4103633;29;20051;-78
2022/10/22 06:45:20;;;;;;;35.03;9.75;;;14.90;99.90;;;14.13;100.00;100824.00;4120776;28;20070;-78
2022/10/22 06:47:21;;;;;;;30.27;8.20;;;14.90;99.90;;;14.14;100.00;100817.72;4119749;28;20470;-77
2022/10/22 06:49:21;;;;;;;22.85;7.78;;;14.90;99.90;;;14.19;100.00;100814.50;4103468;29;20101;-77
2022/10/22 06:51:23;;;;;;;22.05;6.78;;;14.90;99.90;;;14.19;100.00;100810.03;4103491;29;20102;-78
2022/10/22 06:53:24;;;;;;;36.65;9.52;;;14.90;99.90;;;14.22;100.00;100815.00;4120807;28;20401;-77
2022/10/22 06:55:25;;;;;;;35.00;10.27;;;14.90;99.90;;;14.24;100.00;100825.44;4119742;28;20027;-77
2022/10/22 06:57:26;;;;;;;37.28;9.90;;;14.90;99.90;;;14.27;100.00;100827.75;4103568;29;20023;-77
2022/10/22 06:59:27;;;;;;;34.05;9.77;;;14.90;99.90;;;14.29;100.00;100825.72;4120663;28;20035;-77
2022/10/22 07:01:31;;;;;;;39.75;11.23;;;15.00;99.90;;;14.31;100.00;100819.22;4119446;28;20529;-77
2022/10/22 07:03:32;;;;;;;40.83;9.88;;;15.00;99.90;;;14.32;100.00;100820.91;4119609;28;20485;-77
2022/10/22 07:05:34;;;;;;;35.72;9.27;;;15.00;99.90;;;14.35;100.00;100830.34;4119277;28;20031;-78
2022/10/22 07:07:35;;;;;;;30.73;8.95;;;15.00;99.90;;;14.36;100.00;100832.00;4120553;28;20053;-77
2022/10/22 07:09:36;;;;;;;45.50;12.38;;;15.00;99.90;;;14.37;100.00;100823.84;4119370;28;20026;-77
2022/10/22 07:11:44;;;;;;;27.35;8.75;;;15.00;99.90;;;14.36;100.00;100834.66;4120507;28;20031;-77
2022/10/22 07:13:45;;;;;;;27.77;8.25;;;15.10;99.90;;;14.38;100.00;100832.66;4119406;28;20078;-77
2022/10/22 07:15:53;;;;;;;30.10;8.23;;;15.10;99.90;;;14.42;100.00;100836.59;4119222;28;20425;-78
2022/10/22 07:17:54;;;;;;;25.92;7.97;;;15.10;99.90;;;14.42;100.00;100846.41;4118964;28;20074;-77
2022/10/22 07:19:55;;;;;;;41.15;10.13;;;15.10;99.90;;;14.40;100.00;100838.59;4102723;29;20035;-77
2022/10/22 07:21:56;;;;;;;29.40;8.30;;;15.10;99.90;;;14.45;100.00;100846.03;4103126;29;20027;-77
2022/10/22 07:23:58;;;;;;;34.83;9.32;;;15.20;99.90;;;14.45;100.00;100854.00;4101290;29;20035;-77
2022/10/22 07:26:01;;;;;;;22.98;7.70;;;15.20;99.90;;;14.49;100.00;100857.94;4103042;29;20027;-77
2022/10/22 07:28:02;;;;;;;34.08;8.60;;;15.20;99.90;;;14.51;100.00;100862.09;4102743;29;20497;-77
2022/10/22 07:30:03;;;;;;;26.73;8.10;;;15.20;99.90;;;14.49;100.00;100849.97;4119178;28;20054;-77
2022/10/22 07:32:05;;;;;;;30.38;8.93;;;15.20;99.90;;;14.54;100.00;100867.03;4118927;28;20022;-77
2022/10/22 07:34:06;;;;;;;31.38;9.45;;;15.20;99.90;;;14.54;100.00;100869.69;4119993;28;20501;-78
2022/10/22 07:36:16;;;;;;;37.35;10.65;;;15.20;99.90;;;14.56;100.00;100874.81;4120011;28;20050;-77
2022/10/22 07:38:17;;;;;;;30.63;9.40;;;15.30;99.90;;;14.66;100.00;100875.41;4118962;28;20023;-77
2022/10/22 07:40:18;;;;;;;24.05;8.40;;;15.30;99.90;;;14.76;100.00;100875.94;4119923;28;20061;-78
2022/10/22 07:42:19;;;;;;;22.40;9.25;;;15.40;99.90;;;14.82;100.00;100870.75;4120338;28;20066;-77
2022/10/22 07:44:19;;;;;;;37.63;8.85;;;15.50;99.90;;;14.94;100.00;100871.13;4118926;28;20069;-77
2022/10/22 07:46:21;;;;;;;32.35;9.00;;;15.60;99.90;;;15.04;100.00;100868.22;4102554;28;20027;-77
2022/10/22 07:48:23;;;;;;;31.58;9.15;;;15.70;99.90;;;15.04;100.00;100871.72;4102364;29;20042;-77
2022/10/22 07:50:24;;;;;;;28.55;9.55;;;15.70;99.90;;;15.05;100.00;100865.41;4118738;28;20019;-77
2022/10/22 07:52:24;;;;;;;30.77;8.88;;;15.80;99.90;;;15.05;100.00;100873.38;4118623;28;20545;-77
2022/10/22 07:54:25;;;;;;;25.00;7.28;;;15.80;99.90;;;15.05;100.00;100865.41;4120035;28;20106;-77
2022/10/22 07:56:26;;;;;;;21.90;8.50;;;15.80;99.90;;;15.05;100.00;100860.09;4119952;28;20031;-77
2022/10/22 07:58:27;;;;;;;26.50;8.63;;;15.80;99.90;;;15.05;100.00;100865.41;4120210;28;20023;-77
2022/10/22 08:00:28;;;;;;;28.27;7.97;;;15.80;99.90;;;15.06;100.00;100852.91;4118988;28;20087;-77
2022/10/22 08:02:29;;;;;;;35.20;9.30;;;15.80;99.90;;;15.10;100.00;100846.25;4102878;29;20043;-77
2022/10/22 08:04:30;;;;;;;26.83;9.13;;;15.80;99.90;;;15.19;100.00;100853.94;4119659;28;20034;-77
2022/10/22 08:06:31;;;;;;;32.33;11.45;;;15.90;99.90;;;15.33;100.00;100844.31;4119988;28;20030;-77
2022/10/22 08:08:33;;;;;;;23.05;8.57;;;16.00;99.90;;;15.33;100.00;100833.69;4102613;29;20035;-77
2022/10/22 08:10:34;;;;;;;27.92;9.77;;;16.00;99.90;;;15.33;100.00;100831.03;4102585;29;20027;-77
2022/10/22 08:12:36;;;;;;;31.88;10.20;;;16.10;99.90;;;15.42;100.00;100841.38;4102625;29;20553;-77
2022/10/22 08:14:36;;;;;;;19.90;8.15;;;16.10;99.90;;;15.56;100.00;100841.59;4102229;29;20106;-78
2022/10/22 08:16:37;;;;;;;24.13;7.82;;;16.20;99.90;;;15.63;100.00;100839.81;4121591;28;20031;-78
2022/10/22 08:18:38;;;;;;;21.88;8.70;;;16.30;99.90;;;15.74;100.00;100844.69;4125600;28;20034;-77
2022/10/22 08:20:40;;;;;;;17.27;6.85;;;16.40;99.90;;;15.81;100.00;100841.06;4118301;28;20541;-77
2022/10/22 08:22:41;;;;;;;17.75;7.15;;;16.50;99.90;;;15.89;100.00;100842.78;4118444;28;20116;-78
2022/10/22 08:24:42;;;;;;;18.45;6.78;;;16.50;99.90;;;16.00;100.00;100842.31;4118692;28;20043;-77